Time;durP1;ratioP1;P1;durP2;ratioP2;P2;SDS_P1;SDS_P2;PMS_P1;PMS_P2;Temp;Humidity;BMP_temperature;BMP_pressure;BME280_temperature;BME280_humidity;BME280_pressure;Samples;Min_cycle;Max_cycle;Signal;HPM_P1;HPM_P2
2022/03/27 00:02:11;;;;;;;20.20;10.73;;;;;;;8.74;79.06;102865.34;5004127;28;20034;-79
2022/03/27 00:04:37;;;;;;;18.80;10.02;;;;;;;8.71;79.41;102862.94;4987939;28;20030;-77
2022/03/27 00:07:03;;;;;;;19.95;9.93;;;;;;;8.72;79.51;102864.63;4989557;28;20088;-77
2022/03/27 00:09:28;;;;;;;21.80;10.55;;;;;;;8.70;79.80;102868.22;4988934;28;20034;-78
2022/03/27 00:11:54;;;;;;;24.08;11.63;;;;;;;8.64;79.93;102863.41;4987069;28;20414;-78
2022/03/27 00:14:19;;;;;;;23.83;12.20;;;;;;;8.57;79.57;102868.16;4988002;28;20061;-78
2022/03/27 00:16:45;;;;;;;22.10;11.15;;;;;;;8.54;79.67;102869.16;5003033;28;20056;-78
2022/03/27 00:19:10;;;;;;;19.98;10.65;;;;;;;8.52;79.81;102865.00;5005433;28;20041;-78
2022/03/27 00:21:36;;;;;;;19.45;11.43;;;;;;;8.45;80.24;102872.28;5002600;28;20049;-78
2022/03/27 00:24:01;;;;;;;23.52;10.88;;;;;;;8.39;80.53;102873.44;5003554;28;20038;-78
2022/03/27 00:26:27;;;;;;;23.17;11.25;;;;;;;8.35;80.68;102874.53;4973857;28;20064;-78
2022/03/27 00:28:53;;;;;;;21.77;10.75;;;;;;;8.35;81.22;102860.81;5004478;28;20521;-77
2022/03/27 00:31:19;;;;;;;19.48;9.63;;;;;;;8.35;81.10;102871.97;5005208;28;20305;-78
2022/03/27 00:33:46;;;;;;;20.85;9.65;;;;;;;8.36;81.30;102865.88;5003284;28;20371;-78
2022/03/27 00:36:13;;;;;;;18.05;9.35;;;;;;;8.38;81.31;102863.19;5004312;28;20113;-78
2022/03/27 00:38:48;;;;;;;16.50;8.85;;;;;;;8.40;81.43;102871.72;5003310;28;20037;-77
2022/03/27 00:41:14;;;;;;;17.63;8.75;;;;;;;8.40;81.39;102871.72;4985270;28;20042;-79
2022/03/27 00:43:40;;;;;;;18.85;9.15;;;;;;;8.41;81.75;102860.44;4983081;28;20026;-79
2022/03/27 00:46:06;;;;;;;17.80;9.55;;;;;;;8.42;81.69;102864.72;5007697;28;20062;-79
2022/03/27 00:48:34;;;;;;;18.33;9.70;;;;;;;8.41;82.54;102872.53;5004391;28;20040;-78
2022/03/27 00:51:00;;;;;;;16.60;8.73;;;;;;;8.39;82.65;102867.44;5005290;28;20297;-77
2022/03/27 00:53:25;;;;;;;16.42;9.27;;;;;;;8.38;82.81;102874.38;4987008;28;20549;-77
2022/03/27 00:55:51;;;;;;;13.63;7.90;;;;;;;8.38;82.90;102876.09;5003523;28;20092;-76
2022/03/27 00:58:17;;;;;;;21.17;8.48;;;;;;;8.35;83.06;102871.97;4973898;28;20419;-76
2022/03/27 01:00:50;;;;;;;17.85;9.05;;;;;;;8.32;83.06;102866.97;5002402;28;20029;-78
2022/03/27 01:03:20;;;;;;;18.00;9.63;;;;;;;8.29;83.01;102867.16;4988715;28;20076;-77
2022/03/27 01:05:48;;;;;;;20.20;9.23;;;;;;;8.26;82.35;102867.34;4988990;28;20046;-78
2022/03/27 01:08:14;;;;;;;15.50;9.02;;;;;;;8.22;81.89;102871.03;4976006;28;20034;-77
2022/03/27 01:10:41;;;;;;;16.85;9.38;;;;;;;8.17;81.53;102871.31;5005026;28;20463;-76
2022/03/27 01:13:19;;;;;;;18.15;10.20;;;;;;;8.14;81.48;102866.31;5005162;28;20413;-77
2022/03/27 01:15:53;;;;;;;20.23;9.65;;;;;;;8.11;81.36;102863.91;5001041;28;20080;-78
2022/03/27 01:18:19;;;;;;;14.57;8.95;;;;;;;8.10;81.31;102853.63;4988540;28;20483;-79
2022/03/27 01:20:45;;;;;;;17.55;9.55;;;;;;;8.09;81.69;102854.56;4986401;28;20049;-76
2022/03/27 01:23:12;;;;;;;19.77;9.38;;;;;;;8.07;81.71;102854.66;4987340;28;20101;-76
2022/03/27 01:25:40;;;;;;;16.30;9.20;;;;;;;8.07;82.65;102849.50;4971990;28;20037;-78
2022/03/27 01:28:08;;;;;;;16.73;8.27;;;;;;;8.03;83.37;102847.19;5003787;28;20033;-77
2022/03/27 01:30:34;;;;;;;17.05;9.07;;;;;;;8.01;83.83;102841.28;4975038;28;20042;-77
2022/03/27 01:33:00;;;;;;;16.90;8.45;;;;;;;7.97;83.98;102848.38;4991455;28;20038;-77
2022/03/27 01:35:25;;;;;;;15.93;8.20;;;;;;;7.91;83.93;102841.81;4969936;28;20138;-77
2022/03/27 01:37:51;;;;;;;14.45;9.00;;;;;;;7.85;83.86;102843.91;4984499;28;20045;-76
2022/03/27 01:40:17;;;;;;;16.80;9.45;;;;;;;7.79;83.73;102839.94;4987640;28;20034;-80
2022/03/27 01:42:44;;;;;;;17.35;9.35;;;;;;;7.73;83.68;102835.13;5000341;28;20034;-77
2022/03/27 01:45:10;;;;;;;16.17;9.02;;;;;;;7.69;83.24;102833.63;5003465;28;20502;-78
2022/03/27 01:47:37;;;;;;;16.38;9.40;;;;;;;7.68;83.22;102834.53;4989017;28;21217;-76
2022/03/27 01:50:05;;;;;;;19.48;9.35;;;;;;;7.64;82.88;102833.88;5003981;28;20041;-77
2022/03/27 01:52:31;;;;;;;16.58;8.70;;;;;;;7.56;83.51;102836.91;5005301;28;20403;-79
2022/03/27 01:54:57;;;;;;;16.88;9.32;;;;;;;7.58;84.10;102840.22;5000145;28;20030;-78
2022/03/27 01:57:22;;;;;;;19.23;10.07;;;;;;;7.48;84.12;102844.25;5000389;28;20069;-79
2022/03/27 01:59:48;;;;;;;18.48;8.60;;;;;;;7.40;84.79;102843.81;4986286;28;20040;-79
2022/03/27 02:02:13;;;;;;;15.60;7.85;;;;;;;7.36;85.07;102840.59;4990866;28;20038;-78
2022/03/27 02:04:38;;;;;;;12.85;8.25;;;;;;;7.33;85.63;102842.53;4970674;28;20042;-77
2022/03/27 02:07:04;;;;;;;14.40;7.82;;;;;;;7.34;86.16;102850.16;4986797;28;20095;-78
2022/03/27 02:09:30;;;;;;;16.38;8.88;;;;;;;7.36;86.62;102847.50;4986801;28;20034;-79
2022/03/27 02:11:55;;;;;;;16.17;8.43;;;;;;;7.36;86.83;102842.34;4986263;28;20038;-77
2022/03/27 02:14:21;;;;;;;16.30;8.43;;;;;;;7.35;87.62;102840.69;4974681;28;20096;-77
2022/03/27 02:16:47;;;;;;;16.08;7.75;;;;;;;7.37;87.87;102844.03;4993596;28;20075;-78
2022/03/27 02:19:12;;;;;;;12.95;7.80;;;;;;;7.37;88.32;102849.19;4990683;28;20040;-79
2022/03/27 02:21:41;;;;;;;17.27;8.38;;;;;;;7.35;88.31;102849.25;5007266;28;20457;-79
2022/03/27 02:24:08;;;;;;;13.90;7.80;;;;;;;7.36;88.59;102850.09;5004863;28;20045;-78
2022/03/27 02:26:33;;;;;;;18.55;8.05;;;;;;;7.32;88.76;102846.84;4987709;28;20429;-76
2022/03/27 02:28:59;;;;;;;17.33;8.75;;;;;;;7.32;89.34;102840.84;4989124;28;20037;-75
2022/03/27 02:31:25;;;;;;;18.55;8.65;;;;;;;7.30;89.89;102840.09;5009531;28;20040;-78
2022/03/27 02:33:50;;;;;;;16.33;8.48;;;;;;;7.35;90.80;102838.13;5008367;28;20044;-76
2022/03/27 02:36:16;;;;;;;16.25;9.27;;;;;;;7.31;90.78;102837.44;4987511;28;20033;-78
2022/03/27 02:38:42;;;;;;;19.60;10.00;;;;;;;7.30;91.59;102840.94;4991475;28;20853;-77
2022/03/27 02:41:08;;;;;;;21.50;11.20;;;;;;;7.30;92.14;102842.69;4989996;28;20389;-79
2022/03/27 02:43:33;;;;;;;19.95;9.75;;;;;;;7.36;93.26;102840.59;5006026;28;20042;-78
2022/03/27 02:46:00;;;;;;;19.45;9.75;;;;;;;7.34;93.52;102839.00;4978692;28;20036;-78
2022/03/27 02:48:26;;;;;;;22.05;10.02;;;;;;;7.31;93.60;102845.19;5004865;28;20132;-78
2022/03/27 02:50:52;;;;;;;23.15;10.48;;;;;;;7.29;94.03;102838.44;4974604;28;20029;-78
2022/03/27 02:53:17;;;;;;;19.65;9.95;;;;;;;7.27;94.12;102845.44;4991057;28;20101;-78
2022/03/27 02:55:43;;;;;;;19.88;10.80;;;;;;;7.26;94.29;102844.59;5007338;28;20439;-78
2022/03/27 02:58:09;;;;;;;17.98;9.45;;;;;;;7.24;94.26;102830.97;4976064;28;20054;-77
2022/03/27 03:00:34;;;;;;;19.48;10.38;;;;;;;7.24;94.02;102838.69;5005146;28;20046;-75
2022/03/27 03:03:00;;;;;;;20.35;9.98;;;;;;;7.26;94.28;102836.03;4991647;28;20033;-77
2022/03/27 03:05:26;;;;;;;17.45;10.18;;;;;;;7.22;94.32;102825.88;4990147;28;20508;-77
2022/03/27 03:07:51;;;;;;;18.50;10.07;;;;;;;7.21;94.30;102831.13;5010460;28;20060;-78
2022/03/27 03:10:18;;;;;;;19.55;10.38;;;;;;;7.19;94.24;102838.09;4979573;28;20366;-78
2022/03/27 03:12:44;;;;;;;21.42;10.48;;;;;;;7.20;94.29;102829.47;4991221;28;20522;-78
2022/03/27 03:15:10;;;;;;;16.75;9.98;;;;;;;7.16;94.00;102828.81;4992363;28;20038;-78
2022/03/27 03:17:36;;;;;;;23.00;11.02;;;;;;;7.15;93.96;102839.19;5006368;28;20034;-77
2022/03/27 03:20:02;;;;;;;17.13;10.52;;;;;;;7.13;94.03;102834.13;4989325;28;20056;-79
2022/03/27 03:22:29;;;;;;;19.52;10.50;;;;;;;7.11;94.25;102833.38;4993392;28;20548;-78
2022/03/27 03:24:54;;;;;;;17.63;10.18;;;;;;;7.09;94.09;102835.22;4989580;28;20037;-78
2022/03/27 03:27:20;;;;;;;19.10;10.75;;;;;;;7.06;94.21;102835.38;4977294;28;20491;-79
2022/03/27 03:29:46;;;;;;;22.25;10.70;;;;;;;7.02;94.08;102831.28;5007353;28;20033;-79
2022/03/27 03:32:12;;;;;;;19.27;11.15;;;;;;;7.06;94.12;102837.13;4992082;28;20036;-77
2022/03/27 03:34:38;;;;;;;20.48;11.40;;;;;;;7.01;93.91;102837.38;4992181;28;20634;-75
2022/03/27 03:37:04;;;;;;;21.58;10.55;;;;;;;6.96;94.30;102834.22;5005787;28;20192;-78
2022/03/27 03:39:29;;;;;;;20.40;10.60;;;;;;;6.96;94.18;102835.03;4988300;28;20040;-78
2022/03/27 03:41:55;;;;;;;23.10;10.68;;;;;;;6.93;94.33;102831.78;4990981;28;20040;-79
2022/03/27 03:44:20;;;;;;;24.55;11.77;;;;;;;6.90;94.49;102829.38;4992073;28;20067;-78
2022/03/27 03:46:48;;;;;;;22.35;11.35;;;;;;;6.88;94.40;102834.63;4971782;28;20033;-79
2022/03/27 03:49:14;;;;;;;21.90;12.85;;;;;;;6.84;94.74;102825.38;4991036;28;20160;-78
2022/03/27 03:51:40;;;;;;;23.92;12.13;;;;;;;6.90;95.44;102826.81;4972397;28;20036;-79
2022/03/27 03:54:09;;;;;;;21.85;11.48;;;;;;;6.86;95.54;102836.47;5005618;28;20033;-79
2022/03/27 03:56:35;;;;;;;25.50;14.00;;;;;;;6.80;95.64;102829.88;5006680;28;20041;-77
2022/03/27 03:59:01;;;;;;;26.42;13.38;;;;;;;6.77;96.15;102826.63;4988725;28;20307;-78
2022/03/27 04:01:26;;;;;;;32.33;14.95;;;;;;;6.75;96.61;102837.00;4989919;28;20509;-77
2022/03/27 04:03:52;;;;;;;26.27;13.80;;;;;;;6.82;97.20;102837.53;4975909;28;20060;-78
2022/03/27 04:06:17;;;;;;;24.77;13.75;;;;;;;6.74;97.26;102834.50;4992472;28;20042;-78
2022/03/27 04:08:43;;;;;;;22.90;13.02;;;;;;;6.68;97.26;102835.66;4991117;28;20064;-77
2022/03/27 04:11:14;;;;;;;26.05;14.25;;;;;;;6.66;97.13;102837.50;4991525;28;20053;-78
2022/03/27 04:13:40;;;;;;;25.33;13.73;;;;;;;6.65;97.43;102835.00;5004257;28;20472;-78
2022/03/27 04:16:06;;;;;;;24.45;13.48;;;;;;;6.60;97.05;102833.50;4989015;28;20033;-79
2022/03/27 04:18:31;;;;;;;24.77;14.80;;;;;;;6.60;96.78;102838.66;4990099;28;20486;-79
2022/03/27 04:20:57;;;;;;;25.17;13.90;;;;;;;6.58;96.87;102834.50;4977311;28;20049;-77
2022/03/27 04:23:22;;;;;;;32.20;16.10;;;;;;;6.59;96.84;102829.28;4975518;28;20060;-79
2022/03/27 04:25:48;;;;;;;27.55;15.10;;;;;;;6.58;97.01;102835.31;4989358;28;20038;-75
2022/03/27 04:28:13;;;;;;;33.70;15.88;;;;;;;6.56;97.18;102834.56;4987023;28;20414;-78
2022/03/27 04:30:39;;;;;;;31.90;17.50;;;;;;;6.58;97.46;102837.09;5005014;28;20041;-79
2022/03/27 04:33:04;;;;;;;27.38;16.85;;;;;;;6.55;97.64;102847.53;4987312;28;20041;-79
2022/03/27 04:35:30;;;;;;;34.53;18.33;;;;;;;6.52;97.84;102839.97;4992682;28;20033;-78
2022/03/27 04:37:55;;;;;;;34.25;19.42;;;;;;;6.53;98.15;102846.78;5003348;28;20414;-78
2022/03/27 04:40:21;;;;;;;53.47;25.77;;;;;;;6.59;98.67;102855.03;4990556;28;20450;-78
2022/03/27 04:42:46;;;;;;;63.53;29.10;;;;;;;6.62;98.96;102851.47;4988390;28;20038;-77
2022/03/27 04:45:12;;;;;;;74.07;30.95;;;;;;;6.61;99.37;102854.94;4987348;28;20131;-78
2022/03/27 04:47:38;;;;;;;100.13;37.88;;;;;;;6.69;99.99;102859.72;4988463;28;20262;-78
2022/03/27 04:50:05;;;;;;;117.93;41.63;;;;;;;6.55;100.00;102860.44;4990449;28;20095;-77
2022/03/27 04:52:31;;;;;;;127.75;41.47;;;;;;;6.61;100.00;102870.41;4989814;28;20452;-77
2022/03/27 04:54:56;;;;;;;119.47;41.92;;;;;;;6.58;100.00;102873.16;5006618;28;20038;-77
2022/03/27 04:57:22;;;;;;;152.23;44.58;;;;;;;6.57;100.00;102879.22;4989686;28;20022;-77
2022/03/27 04:59:48;;;;;;;155.52;46.13;;;;;;;6.57;100.00;102876.66;4987820;28;20095;-77
2022/03/27 05:02:14;;;;;;;168.40;47.28;;;;;;;6.65;100.00;102882.25;5002587;28;20491;-77
2022/03/27 05:04:43;;;;;;;198.57;53.28;;;;;;;6.68;100.00;102879.50;4989759;28;20044;-77
2022/03/27 05:07:08;;;;;;;190.35;53.85;;;;;;;6.69;100.00;102883.75;5003393;28;20386;-77
2022/03/27 05:09:34;;;;;;;202.93;54.75;;;;;;;6.70;100.00;102887.97;4985122;28;20033;-77
2022/03/27 05:11:59;;;;;;;214.27;55.25;;;;;;;6.69;100.00;102888.91;5003889;28;20111;-77
2022/03/27 05:14:25;;;;;;;229.75;58.55;;;;;;;6.78;100.00;102892.75;5004715;28;20044;-77
2022/03/27 05:16:50;;;;;;;260.10;65.40;;;;;;;6.79;100.00;102890.09;4985989;28;20038;-77
2022/03/27 05:19:16;;;;;;;250.73;64.75;;;;;;;6.85;100.00;102898.44;4988876;28;20414;-77
2022/03/27 05:21:42;;;;;;;298.52;71.80;;;;;;;6.88;100.00;102893.94;4988846;28;20049;-77
2022/03/27 05:24:09;;;;;;;265.42;66.18;;;;;;;6.91;100.00;102890.34;4985291;28;20057;-77
2022/03/27 05:26:35;;;;;;;277.17;67.15;;;;;;;6.92;100.00;102892.03;4986212;28;20025;-77
2022/03/27 05:29:04;;;;;;;271.50;70.18;;;;;;;6.99;100.00;102898.53;4986790;28;20037;-77
2022/03/27 05:31:29;;;;;;;296.83;75.10;;;;;;;7.06;100.00;102896.44;4971767;28;20386;-77
2022/03/27 05:33:55;;;;;;;269.60;69.68;;;;;;;7.04;100.00;102901.69;4987438;28;20426;-77
2022/03/27 05:36:21;;;;;;;272.42;72.75;;;;;;;7.07;100.00;102898.13;4984034;28;20462;-77
2022/03/27 05:38:47;;;;;;;284.95;72.68;;;;;;;7.10;100.00;102897.94;5001557;28;20045;-77
2022/03/27 05:41:12;;;;;;;303.75;78.80;;;;;;;7.12;100.00;102901.28;4985114;28;20303;-77
2022/03/27 05:43:38;;;;;;;268.23;68.53;;;;;;;7.15;100.00;102893.38;5001066;28;20053;-77
2022/03/27 05:46:04;;;;;;;266.02;71.85;;;;;;;7.24;100.00;102899.81;4986687;28;20030;-77
2022/03/27 05:48:29;;;;;;;265.42;72.57;;;;;;;7.21;100.00;102899.06;4987528;28;20030;-78
2022/03/27 05:50:55;;;;;;;245.02;69.03;;;;;;;7.23;100.00;102898.94;4984853;28;20041;-77
2022/03/27 05:53:20;;;;;;;238.65;64.28;;;;;;;7.29;100.00;102897.78;5003887;28;20570;-77
2022/03/27 05:55:47;;;;;;;218.80;63.30;;;;;;;7.34;100.00;102906.13;4988169;28;20033;-77
2022/03/27 05:58:13;;;;;;;208.13;60.92;;;;;;;7.33;100.00;102900.13;4985677;28;20077;-77
2022/03/27 06:00:39;;;;;;;222.63;62.55;;;;;;;7.37;100.00;102908.53;4998516;28;20034;-77
2022/03/27 06:03:05;;;;;;;200.30;60.42;;;;;;;7.47;100.00;102909.69;5003834;28;20604;-77
2022/03/27 06:05:30;;;;;;;219.25;60.33;;;;;;;7.44;100.00;102911.59;4990589;28;20065;-77
2022/03/27 06:07:57;;;;;;;201.73;62.95;;;;;;;7.41;100.00;102913.44;5005221;28;20545;-77
2022/03/27 06:10:26;;;;;;;228.77;63.67;;;;;;;7.43;100.00;102923.69;4992602;28;20076;-77
2022/03/27 06:12:52;;;;;;;223.38;65.20;;;;;;;7.48;100.00;102920.84;4990647;28;20337;-77
2022/03/27 06:15:19;;;;;;;240.18;65.32;;;;;;;7.47;100.00;102922.59;5006151;28;20117;-77
2022/03/27 06:17:46;;;;;;;261.92;68.55;;;;;;;7.48;100.00;102926.00;4990597;28;20048;-77
2022/03/27 06:20:15;;;;;;;271.83;71.10;;;;;;;7.55;100.00;102928.19;4973817;28;20034;-77
2022/03/27 06:22:41;;;;;;;243.75;69.80;;;;;;;7.58;100.00;102919.44;5006266;28;20034;-77
2022/03/27 06:25:15;;;;;;;266.55;73.80;;;;;;;7.58;100.00;102932.34;4987321;28;20092;-77
2022/03/27 06:27:42;;;;;;;270.67;71.88;;;;;;;7.60;100.00;102931.34;5006323;28;20538;-78
2022/03/27 06:30:10;;;;;;;274.52;73.75;;;;;;;7.65;100.00;102932.81;4993074;28;20066;-76
2022/03/27 06:32:36;;;;;;;312.30;78.50;;;;;;;7.67;100.00;102931.03;4976215;28;20022;-77
2022/03/27 06:35:04;;;;;;;304.08;78.45;;;;;;;7.65;100.00;102928.53;5006847;28;20037;-77
2022/03/27 06:37:30;;;;;;;286.95;73.47;;;;;;;7.71;100.00;102932.50;5005743;28;20056;-77
2022/03/27 06:39:56;;;;;;;291.13;75.45;;;;;;;7.71;100.00;102929.94;5005885;28;20037;-77
2022/03/27 06:42:23;;;;;;;307.25;74.40;;;;;;;7.69;100.00;102929.19;5007547;28;20101;-77
2022/03/27 06:44:50;;;;;;;298.73;73.25;;;;;;;7.69;100.00;102919.69;4991386;28;20143;-76
2022/03/27 06:47:15;;;;;;;316.10;75.30;;;;;;;7.70;100.00;102925.66;5004895;28;20338;-77
2022/03/27 06:49:41;;;;;;;312.90;74.68;;;;;;;7.77;100.00;102925.25;4989299;28;20497;-77
2022/03/27 06:52:07;;;;;;;394.58;123.15;;;;;;;7.84;100.00;102918.00;4989841;28;20107;-77
2022/03/27 06:54:33;;;;;;;310.75;78.53;;;;;;;7.78;100.00;102921.75;4993051;28;20029;-77
2022/03/27 06:56:59;;;;;;;308.20;74.63;;;;;;;7.80;100.00;102919.91;4972589;28;20430;-77
2022/03/27 06:59:24;;;;;;;297.20;72.40;;;;;;;7.81;100.00;102925.91;5008806;28;20034;-77
2022/03/27 07:04:34;;;;;;;283.77;71.20;;;;;;;7.84;100.00;102930.09;5004976;28;20088;-77
2022/03/27 07:07:00;;;;;;;301.75;75.53;;;;;;;7.83;100.00;102933.56;4972344;28;20030;-77
2022/03/27 07:09:25;;;;;;;270.40;70.65;;;;;;;7.87;100.00;102925.56;5005961;28;20092;-77
2022/03/27 07:11:51;;;;;;;286.30;73.72;;;;;;;7.93;100.00;102927.81;4991186;28;20621;-77
2022/03/27 07:14:18;;;;;;;297.55;72.88;;;;;;;7.96;100.00;102925.03;4990099;28;20038;-77
2022/03/27 07:16:43;;;;;;;284.77;72.70;;;;;;;8.01;100.00;102921.38;5006053;28;20034;-77
2022/03/27 07:19:10;;;;;;;290.35;74.53;;;;;;;8.00;100.00;102923.09;4977475;28;20033;-78
2022/03/27 07:21:39;;;;;;;298.65;75.80;;;;;;;8.13;100.00;102928.41;4985206;28;20645;-78
2022/03/27 07:24:05;;;;;;;306.40;75.07;;;;;;;8.14;100.00;102922.34;4987245;28;20033;-78
2022/03/27 07:26:31;;;;;;;288.02;72.70;;;;;;;8.07;100.00;102931.34;4986135;28;20036;-77
2022/03/27 07:28:56;;;;;;;299.80;77.22;;;;;;;8.13;100.00;102926.66;4986363;28;20041;-78
2022/03/27 07:31:22;;;;;;;311.00;76.88;;;;;;;8.09;100.00;102932.09;4990582;28;20041;-78
2022/03/27 07:33:48;;;;;;;311.85;76.38;;;;;;;8.07;100.00;102928.78;4987923;28;20034;-78
2022/03/27 07:36:13;;;;;;;296.73;74.95;;;;;;;8.06;100.00;102929.69;4992899;28;20091;-78
2022/03/27 07:38:39;;;;;;;311.80;77.32;;;;;;;8.15;100.00;102945.47;5006340;28;20096;-78
2022/03/27 07:41:04;;;;;;;318.13;78.43;;;;;;;8.22;100.00;102938.22;4991291;28;20064;-78
2022/03/27 07:43:31;;;;;;;294.35;78.30;;;;;;;8.21;100.00;102931.38;4987413;28;20125;-78
2022/03/27 07:45:56;;;;;;;306.30;75.53;;;;;;;8.22;100.00;102938.22;4991371;28;20240;-78
2022/03/27 07:48:21;;;;;;;293.88;75.80;;;;;;;8.23;100.00;102931.28;4971317;28;20383;-78
2022/03/27 07:50:54;;;;;;;291.25;74.97;;;;;;;8.27;100.00;102925.88;4990046;28;20029;-77
2022/03/27 07:53:20;;;;;;;293.73;77.20;;;;;;;8.29;100.00;102930.97;5007219;28;20116;-78
2022/03/27 07:55:45;;;;;;;290.85;78.53;;;;;;;8.29;100.00;102928.38;4988945;28;20148;-78
2022/03/27 07:58:11;;;;;;;296.77;79.22;;;;;;;8.33;100.00;102933.25;4988908;28;20325;-77
2022/03/27 08:00:36;;;;;;;294.25;77.68;;;;;;;8.37;100.00;102937.34;4989517;28;20767;-77
2022/03/27 08:03:02;;;;;;;296.65;75.38;;;;;;;8.35;100.00;102928.00;5006223;28;20073;-79
2022/03/27 08:05:28;;;;;;;287.58;76.63;;;;;;;8.38;100.00;102920.91;4987799;28;20041;-78
2022/03/27 08:07:53;;;;;;;274.00;73.60;;;;;;;8.51;100.00;102925.38;5009430;28;20029;-78
2022/03/27 08:10:19;;;;;;;272.70;76.28;;;;;;;8.59;100.00;102925.78;5006133;28;20065;-77
2022/03/27 08:12:46;;;;;;;269.95;72.93;;;;;;;8.60;100.00;102924.00;4990154;28;20044;-79
2022/03/27 08:15:12;;;;;;;274.30;76.95;;;;;;;8.61;100.00;102923.94;4989394;28;20445;-78
2022/03/27 08:17:38;;;;;;;260.50;75.82;;;;;;;8.66;99.67;102919.28;4988427;28;20033;-78
2022/03/27 08:20:05;;;;;;;256.90;74.97;;;;;;;8.67;99.69;102923.56;5005380;28;20111;-77
2022/03/27 08:22:30;;;;;;;263.05;73.18;;;;;;;8.76;99.79;102924.78;4989503;28;20037;-78
2022/03/27 08:24:56;;;;;;;273.85;74.03;;;;;;;8.79;99.83;102921.16;4994011;28;20040;-78
2022/03/27 08:27:21;;;;;;;269.95;76.28;;;;;;;8.85;99.58;102913.00;4986808;28;20034;-78
2022/03/27 08:29:47;;;;;;;247.30;70.32;;;;;;;8.92;99.46;102914.31;5002018;28;20030;-78
2022/03/27 08:32:14;;;;;;;259.17;75.07;;;;;;;8.98;98.03;102908.75;4981324;28;20123;-78
2022/03/27 08:34:43;;;;;;;274.65;76.05;;;;;;;9.04;97.50;102910.97;4987332;28;20057;-78
2022/03/27 08:37:10;;;;;;;243.10;73.32;;;;;;;9.08;97.00;102904.69;4986256;28;20034;-77
2022/03/27 08:39:38;;;;;;;262.85;74.30;;;;;;;9.10;96.78;102905.41;5003515;28;20105;-78
2022/03/27 08:42:04;;;;;;;247.35;71.78;;;;;;;9.14;96.86;102908.66;4988087;28;20037;-78
2022/03/27 08:44:30;;;;;;;249.10;72.55;;;;;;;9.18;96.95;102910.13;4991976;28;20091;-77
2022/03/27 08:46:58;;;;;;;249.48;71.50;;;;;;;9.16;96.85;102902.44;5004692;28;20122;-78
2022/03/27 08:49:23;;;;;;;259.02;73.20;;;;;;;9.24;96.78;102904.56;4985651;28;20422;-78
2022/03/27 08:52:02;;;;;;;256.88;73.15;;;;;;;9.40;96.20;102904.44;5005248;28;20033;-77
2022/03/27 08:54:57;;;;;;;257.98;74.45;;;;;;;9.44;95.32;102905.91;5007214;28;20100;-78
2022/03/27 08:57:24;;;;;;;245.50;72.93;;;;;;;9.55;94.85;102906.03;5004876;28;20512;-78
2022/03/27 08:59:55;;;;;;;263.70;73.88;;;;;;;9.57;93.60;102903.38;4990677;28;20026;-78
2022/03/27 09:02:24;;;;;;;249.93;73.93;;;;;;;9.62;93.44;102903.06;4998168;28;20033;-78
2022/03/27 09:04:54;;;;;;;227.80;69.70;;;;;;;9.70;93.49;102906.81;5000463;28;20161;-78
2022/03/27 09:07:24;;;;;;;221.30;72.25;;;;;;;9.75;93.03;102909.09;4980490;28;20054;-78
2022/03/27 09:09:51;;;;;;;216.25;70.45;;;;;;;9.82;92.12;102906.97;4987886;28;20487;-78
2022/03/27 09:12:18;;;;;;;199.40;63.35;;;;;;;9.86;91.88;102903.25;4971252;28;20430;-78
2022/03/27 09:14:44;;;;;;;194.98;64.35;;;;;;;9.99;92.22;102911.03;5004676;28;20126;-78
2022/03/27 09:17:10;;;;;;;181.60;57.80;;;;;;;10.15;91.68;102911.69;5005350;28;20387;-78
2022/03/27 09:19:46;;;;;;;190.45;63.97;;;;;;;10.20;90.36;102913.97;5014291;28;20029;-78
2022/03/27 09:22:17;;;;;;;205.02;65.93;;;;;;;10.16;90.15;102907.34;4999159;28;20475;-78
2022/03/27 09:24:46;;;;;;;203.02;65.32;;;;;;;10.28;90.20;102915.13;4996686;28;20049;-79
2022/03/27 09:27:13;;;;;;;195.38;64.43;;;;;;;10.30;90.01;102913.31;5000858;28;20372;-77
2022/03/27 09:30:06;;;;;;;187.88;62.53;;;;;;;10.39;89.65;102911.00;5002558;28;20085;-78
2022/03/27 09:32:37;;;;;;;178.30;61.95;;;;;;;10.53;88.33;102913.50;4978696;28;20812;-78
2022/03/27 09:35:11;;;;;;;190.50;62.78;;;;;;;10.48;88.65;102906.03;4995093;28;20044;-78
2022/03/27 09:37:42;;;;;;;201.45;66.38;;;;;;;10.57;87.99;102909.78;4999340;28;20115;-78
2022/03/27 09:40:10;;;;;;;191.52;64.95;;;;;;;10.59;87.68;102910.50;5008360;28;20042;-78
2022/03/27 09:42:37;;;;;;;204.93;67.28;;;;;;;10.76;88.03;102906.75;5008724;28;20057;-79
2022/03/27 09:45:28;;;;;;;212.27;70.63;;;;;;;11.03;85.83;102906.56;4975385;28;20076;-79
2022/03/27 09:48:07;;;;;;;225.55;73.80;;;;;;;11.01;85.28;102900.66;4988321;28;20046;-78
2022/03/27 09:50:35;;;;;;;219.52;72.90;;;;;;;10.97;85.10;102898.41;5006962;28;20037;-78
2022/03/27 09:53:22;;;;;;;231.57;73.72;;;;;;;11.17;84.99;102900.44;4993169;28;20714;-78
2022/03/27 09:56:10;;;;;;;241.32;79.85;;;;;;;11.16;83.72;102896.16;5009501;28;20037;-78
2022/03/27 09:58:46;;;;;;;244.73;88.45;;;;;;;11.21;84.16;102901.88;5010556;28;20042;-78
2022/03/27 10:01:14;;;;;;;240.48;78.30;;;;;;;11.24;84.00;102888.66;5008232;28;20030;-78
2022/03/27 10:04:08;;;;;;;228.18;76.22;;;;;;;11.33;83.13;102889.75;5014571;28;20036;-78
2022/03/27 10:06:34;;;;;;;213.50;76.35;;;;;;;11.39;83.44;102883.31;4990286;28;20097;-77
2022/03/27 10:09:01;;;;;;;206.75;74.05;;;;;;;11.37;82.32;102882.59;4990993;28;20041;-77
2022/03/27 10:11:27;;;;;;;205.35;72.03;;;;;;;11.39;82.40;102884.13;5005907;28;20029;-78
2022/03/27 10:13:53;;;;;;;211.80;70.95;;;;;;;11.38;82.43;102882.47;5009551;28;20510;-78
2022/03/27 10:16:30;;;;;;;205.43;69.57;;;;;;;11.57;82.70;102870.75;4990398;28;20120;-78
2022/03/27 10:19:05;;;;;;;216.95;77.60;;;;;;;11.62;81.13;102866.03;5011037;28;20128;-78
2022/03/27 10:21:33;;;;;;;210.85;74.95;;;;;;;11.92;81.20;102870.75;4989127;28;20041;-79
2022/03/27 10:24:08;;;;;;;182.93;67.20;;;;;;;12.10;79.56;102872.94;4987905;28;20030;-78
2022/03/27 10:26:33;;;;;;;178.25;63.42;;;;;;;12.26;78.94;102863.03;5000590;28;20061;-78
2022/03/27 10:29:01;;;;;;;157.32;59.22;;;;;;;12.23;79.46;102869.28;5006417;28;20034;-78
2022/03/27 10:31:27;;;;;;;160.55;59.60;;;;;;;12.29;78.89;102860.19;4985480;28;20037;-79
2022/03/27 10:33:55;;;;;;;172.55;65.53;;;;;;;12.48;77.76;102856.19;4989914;28;20453;-78
2022/03/27 10:36:44;;;;;;;169.05;62.42;;;;;;;12.51;78.51;102863.75;5006780;28;20034;-78
2022/03/27 10:39:47;;;;;;;168.80;61.53;;;;;;;12.47;76.83;102865.78;4968354;28;20463;-78
2022/03/27 10:42:19;;;;;;;146.90;57.35;;;;;;;12.42;77.23;102858.31;4990670;28;20121;-78
2022/03/27 10:44:51;;;;;;;155.43;59.90;;;;;;;12.63;76.73;102850.59;5008015;28;20042;-78
2022/03/27 10:47:19;;;;;;;150.90;58.50;;;;;;;12.89;75.52;102852.13;4978834;28;20044;-78
2022/03/27 10:50:06;;;;;;;146.77;57.28;;;;;;;13.06;73.26;102843.81;5009053;28;20040;-78
2022/03/27 10:52:36;;;;;;;143.75;55.08;;;;;;;13.05;74.21;102842.97;5009020;28;20068;-79
2022/03/27 10:55:13;;;;;;;138.65;55.75;;;;;;;12.95;75.19;102843.81;4990631;28;20042;-78
2022/03/27 10:57:42;;;;;;;142.07;57.30;;;;;;;13.10;74.62;102837.38;4987202;28;20065;-78
2022/03/27 11:00:12;;;;;;;145.43;58.10;;;;;;;13.19;74.07;102841.03;5008024;28;20044;-76
2022/03/27 11:02:43;;;;;;;139.88;57.92;;;;;;;13.38;72.93;102838.63;4972999;28;20447;-76
2022/03/27 11:05:28;;;;;;;140.18;56.83;;;;;;;13.59;71.96;102827.41;4993238;28;20045;-76
2022/03/27 11:08:14;;;;;;;143.10;57.63;;;;;;;13.63;71.42;102832.22;4996381;28;20037;-76
2022/03/27 11:10:41;;;;;;;140.70;55.67;;;;;;;13.79;70.78;102823.97;4983677;28;20124;-76
2022/03/27 11:13:25;;;;;;;153.75;62.63;;;;;;;13.54;70.80;102816.50;4991026;28;20345;-75
2022/03/27 11:16:11;;;;;;;149.32;63.55;;;;;;;13.57;70.92;102814.47;5004932;28;20438;-75